Time;durP1;ratioP1;P1;durP2;ratioP2;P2;SDS_P1;SDS_P2;PMS_P1;PMS_P2;Temp;Humidity;BMP_temperature;BMP_pressure;BME280_temperature;BME280_humidity;BME280_pressure;Samples;Min_cycle;Max_cycle;Signal;HPM_P1;HPM_P2
2021/03/01 00:01:20;;;;;;;45.60;15.90;;;;;;;4.47;85.76;103600.13;10369965;28;20051;-66
2021/03/01 00:06:16;;;;;;;36.88;15.27;;;;;;;4.52;85.99;103592.22;10381044;27;20053;-67
2021/03/01 00:11:12;;;;;;;34.72;14.35;;;;;;;4.67;84.94;103595.59;10378795;28;20040;-66
2021/03/01 00:16:09;;;;;;;35.00;14.88;;;;;;;4.54;85.20;103588.25;10384915;27;20116;-66
2021/03/01 00:21:05;;;;;;;34.65;14.98;;;;;;;4.54;84.79;103590.16;10387402;28;20428;-67
2021/03/01 00:26:01;;;;;;;39.60;15.05;;;;;;;4.29;85.00;103579.88;10383343;28;20097;-69
2021/03/01 00:30:57;;;;;;;30.65;13.05;;;;;;;4.21;85.41;103589.03;10378611;28;20406;-66
2021/03/01 00:35:53;;;;;;;30.73;12.57;;;;;;;4.35;85.79;103580.94;10374575;28;20051;-65
2021/03/01 00:40:49;;;;;;;30.77;12.60;;;;;;;4.37;85.38;103579.69;10369926;28;20174;-65
2021/03/01 00:45:45;;;;;;;30.85;12.98;;;;;;;4.42;84.73;103581.78;10384389;28;20047;-65
2021/03/01 00:50:41;;;;;;;32.05;12.35;;;;;;;4.40;85.08;103563.03;10371124;27;20047;-65
2021/03/01 00:55:37;;;;;;;34.30;13.63;;;;;;;4.37;85.73;103563.44;10374462;28;20108;-65
2021/03/01 01:00:34;;;;;;;27.27;11.73;;;;;;;4.31;85.89;103558.84;10371421;28;20051;-65
2021/03/01 01:05:30;;;;;;;27.80;12.60;;;;;;;4.42;85.14;103557.41;10374601;28;20051;-65
2021/03/01 01:10:26;;;;;;;30.13;12.13;;;;;;;4.35;85.70;103554.69;10380123;28;20513;-65
2021/03/01 01:15:23;;;;;;;26.27;12.05;;;;;;;4.37;85.36;103558.03;10377079;28;20055;-66
2021/03/01 01:20:19;;;;;;;30.23;13.07;;;;;;;4.34;85.31;103553.03;10375455;28;20101;-66
2021/03/01 01:25:16;;;;;;;32.35;12.80;;;;;;;4.17;86.15;103554.44;10380357;27;20052;-66
2021/03/01 01:30:19;;;;;;;32.63;13.65;;;;;;;4.12;85.88;103537.97;10382887;28;20056;-66
2021/03/01 01:35:16;;;;;;;31.65;12.60;;;;;;;4.21;86.58;103542.16;10372267;28;20071;-66
2021/03/01 01:40:20;;;;;;;33.33;12.40;;;;;;;4.21;85.62;103536.75;10377975;28;20055;-66
2021/03/01 01:45:19;;;;;;;;;;;;;;;4.14;86.60;103535.91;10377971;27;20071;-67
2021/03/01 01:50:19;;;;;;;32.50;14.35;;;;;;;4.30;86.59;103523.84;10372778;28;19962;-67
2021/03/01 01:55:16;;;;;;;38.03;13.68;;;;;;;4.23;86.01;103529.25;10370834;28;20070;-67
2021/03/01 02:05:26;;;;;;;36.67;15.25;;;;;;;4.33;85.40;103520.72;11351069;22;20854;-65
2021/03/01 02:10:28;;;;;;;33.17;14.43;;;;;;;4.34;85.52;103528.66;10322677;28;20056;-69
2021/03/01 02:15:47;;;;;;;36.20;13.65;;;;;;;4.41;85.58;103537.63;10337820;28;20047;-67
2021/03/01 02:20:48;;;;;;;33.58;14.32;;;;;;;4.48;85.24;103532.22;10301208;28;20048;-68
2021/03/01 02:25:59;;;;;;;33.80;13.60;;;;;;;4.37;85.53;103533.66;10284849;28;20072;-69
2021/03/01 02:31:00;;;;;;;29.27;12.27;;;;;;;4.46;85.17;103541.59;10301369;28;20044;-67
2021/03/01 02:36:14;;;;;;;30.02;12.75;;;;;;;4.61;85.44;103525.94;10301678;28;20056;-67
2021/03/01 02:41:11;;;;;;;28.60;13.25;;;;;;;4.60;84.64;103529.72;10296304;28;20041;-67
2021/03/01 02:46:10;;;;;;;30.30;13.07;;;;;;;4.72;84.21;103525.31;10309183;28;20072;-67
2021/03/01 02:51:07;;;;;;;21.00;8.98;;;;;;;4.58;84.14;103537.22;10295898;28;20129;-68
2021/03/01 02:56:05;;;;;;;19.67;9.95;;;;;;;4.62;83.86;103530.34;10304377;28;20076;-68
2021/03/01 03:01:02;;;;;;;23.38;10.52;;;;;;;4.50;83.09;103534.69;10302482;28;20060;-68
2021/03/01 03:06:00;;;;;;;21.05;9.32;;;;;;;4.52;83.69;103543.44;10296639;28;20079;-66
2021/03/01 03:10:58;;;;;;;16.33;8.40;;;;;;;4.64;82.81;103539.06;10306167;28;20040;-68
2021/03/01 03:15:57;;;;;;;17.48;7.55;;;;;;;4.66;82.51;103539.69;10300877;28;20052;-68
2021/03/01 03:20:53;;;;;;;14.90;8.07;;;;;;;4.81;82.62;103548.44;10301175;28;20109;-68
2021/03/01 03:25:49;;;;;;;19.65;8.15;;;;;;;4.81;81.99;103531.34;10301616;28;20052;-66
2021/03/01 03:30:45;;;;;;;16.50;8.88;;;;;;;4.70;82.10;103535.53;10299128;28;20575;-68
2021/03/01 03:35:42;;;;;;;17.42;8.43;;;;;;;4.78;82.30;103543.47;10303030;28;20057;-67
2021/03/01 03:40:44;;;;;;;17.00;7.85;;;;;;;4.72;81.73;103538.88;10292543;28;20493;-69
2021/03/01 03:45:41;;;;;;;14.38;7.15;;;;;;;4.77;82.00;103549.09;10293829;28;20110;-66
2021/03/01 03:50:40;;;;;;;17.30;7.68;;;;;;;4.85;81.82;103543.47;10300186;28;20052;-68
2021/03/01 03:55:41;;;;;;;16.52;8.50;;;;;;;4.64;83.08;103537.22;10301200;28;20071;-68
2021/03/01 04:00:38;;;;;;;16.38;7.45;;;;;;;4.64;81.59;103547.19;10290439;28;20103;-67
2021/03/01 04:05:39;;;;;;;20.15;8.07;;;;;;;4.60;82.82;103551.38;10294846;28;20095;-67
2021/03/01 04:10:36;;;;;;;18.70;9.15;;;;;;;4.66;82.92;103545.13;10291953;28;20052;-66
2021/03/01 04:15:35;;;;;;;18.27;7.80;;;;;;;4.71;81.77;103548.06;10296147;28;20063;-67
2021/03/01 04:20:35;;;;;;;19.55;8.73;;;;;;;4.73;82.28;103540.53;10293307;28;20056;-66
2021/03/01 04:25:32;;;;;;;17.98;9.82;;;;;;;4.78;82.01;103540.75;10296676;28;20138;-65
2021/03/01 04:30:29;;;;;;;22.50;8.90;;;;;;;4.70;81.82;103550.97;10301534;28;20049;-69
2021/03/01 04:35:26;;;;;;;16.67;8.50;;;;;;;4.60;81.92;103552.22;10304986;28;20045;-67
2021/03/01 04:40:22;;;;;;;16.75;8.30;;;;;;;4.67;81.96;103557.63;10304989;28;20094;-67
2021/03/01 04:45:19;;;;;;;20.67;9.05;;;;;;;4.56;81.58;103560.97;10305813;28;20452;-67
2021/03/01 04:50:17;;;;;;;19.73;8.13;;;;;;;4.50;82.23;103567.19;10302957;28;20052;-67
2021/03/01 04:55:14;;;;;;;17.20;7.63;;;;;;;4.45;82.47;103569.69;10292241;28;20044;-68
2021/03/01 05:00:11;;;;;;;19.35;8.77;;;;;;;4.49;82.40;103565.53;10305649;28;20668;-67
2021/03/01 05:05:08;;;;;;;20.70;9.75;;;;;;;4.58;81.69;103569.72;10299568;28;20040;-65
2021/03/01 05:10:06;;;;;;;25.30;10.13;;;;;;;4.59;81.91;103560.53;10298787;28;20052;-68
2021/03/01 05:15:03;;;;;;;18.40;8.98;;;;;;;4.42;82.49;103560.13;10301868;28;20560;-69
2021/03/01 05:19:59;;;;;;;19.75;8.40;;;;;;;4.50;82.09;103561.78;10289870;28;20541;-68
2021/03/01 05:24:56;;;;;;;18.15;7.20;;;;;;;4.47;81.43;103556.78;10302393;28;20068;-66
2021/03/01 05:29:53;;;;;;;16.48;7.75;;;;;;;4.36;81.86;103547.38;10293654;28;21302;-69
2021/03/01 05:34:49;;;;;;;16.58;7.45;;;;;;;4.53;81.26;103555.97;10292866;28;20164;-66
2021/03/01 05:39:45;;;;;;;14.60;7.05;;;;;;;4.53;80.70;103556.81;10296349;28;20465;-69
2021/03/01 05:44:42;;;;;;;17.10;6.70;;;;;;;4.48;80.71;103563.88;10299119;28;20044;-65
2021/03/01 05:49:40;;;;;;;13.23;6.45;;;;;;;4.59;80.49;103555.13;10287650;28;20064;-66
2021/03/01 05:54:36;;;;;;;16.55;7.80;;;;;;;4.73;80.44;103562.22;10291451;28;20103;-65
2021/03/01 05:59:33;;;;;;;12.70;6.35;;;;;;;4.83;80.21;103554.50;10291312;28;20048;-65
2021/03/01 06:04:29;;;;;;;14.52;7.00;;;;;;;4.86;80.41;103550.53;10287374;28;20048;-66
2021/03/01 06:09:25;;;;;;;15.13;6.85;;;;;;;4.90;79.63;103559.06;10286333;28;20112;-66
2021/03/01 06:14:22;;;;;;;14.60;7.85;;;;;;;4.92;79.27;103559.69;10284188;28;20045;-68
2021/03/01 06:19:44;;;;;;;18.98;9.45;;;;;;;4.83;79.38;103562.63;10282068;28;20041;-66
2021/03/01 06:24:41;;;;;;;22.33;10.45;;;;;;;4.82;80.00;103563.66;10278329;28;20048;-66
2021/03/01 06:30:17;;;;;;;24.77;10.90;;;;;;;4.67;80.54;103562.22;10279072;28;20052;-65
2021/03/01 06:35:38;;;;;;;25.48;11.95;;;;;;;4.39;80.38;103572.22;10219969;28;20056;-65
2021/03/01 06:40:34;;;;;;;18.42;9.95;;;;;;;4.50;80.81;103580.75;10272225;28;20173;-65
2021/03/01 06:45:30;;;;;;;22.35;11.07;;;;;;;4.56;80.21;103567.22;10275835;28;20049;-65
2021/03/01 06:50:35;;;;;;;24.83;10.63;;;;;;;4.58;80.17;103581.38;10290902;28;20052;-66
2021/03/01 06:55:32;;;;;;;22.20;11.13;;;;;;;4.32;81.53;103581.38;10292828;28;20053;-67
2021/03/01 07:00:28;;;;;;;24.80;11.98;;;;;;;4.41;80.85;103583.66;10290579;28;20060;-65
2021/03/01 07:05:24;;;;;;;23.63;11.23;;;;;;;4.37;81.00;103574.28;10282152;28;20053;-64
2021/03/01 07:10:21;;;;;;;24.00;10.95;;;;;;;4.29;81.78;103569.03;10283860;28;20048;-64
2021/03/01 07:15:17;;;;;;;23.88;10.60;;;;;;;4.30;81.71;103573.44;10293598;28;20168;-63
2021/03/01 07:20:15;;;;;;;19.98;10.15;;;;;;;4.33;81.04;103572.19;10293237;28;20478;-64
2021/03/01 07:25:14;;;;;;;18.63;9.10;;;;;;;4.28;80.67;103586.34;10298593;28;20091;-61
2021/03/01 07:30:12;;;;;;;21.58;9.80;;;;;;;4.38;80.99;103580.53;10295479;28;20053;-66
2021/03/01 07:35:09;;;;;;;21.73;9.73;;;;;;;4.24;80.70;103589.66;10297030;28;20397;-65
2021/03/01 07:40:08;;;;;;;16.52;8.57;;;;;;;4.34;79.98;103588.25;10302859;28;20064;-64
2021/03/01 07:45:06;;;;;;;14.77;8.20;;;;;;;4.22;80.99;103592.56;10297211;28;20153;-65
2021/03/01 07:50:04;;;;;;;15.73;8.70;;;;;;;4.43;79.90;103592.44;10299668;28;20075;-63
2021/03/01 07:55:07;;;;;;;16.92;8.52;;;;;;;4.51;79.37;103590.56;10309008;28;20764;-65
2021/03/01 08:00:30;;;;;;;17.70;8.98;;;;;;;4.60;79.21;103594.75;10297668;28;20122;-66
2021/03/01 08:05:33;;;;;;;16.30;8.52;;;;;;;4.61;78.60;103591.81;10298815;28;20488;-65
2021/03/01 08:10:29;;;;;;;16.77;8.70;;;;;;;4.68;78.74;103596.41;10289688;28;20070;-65
2021/03/01 08:15:29;;;;;;;18.63;8.95;;;;;;;4.74;77.31;103596.41;10294052;28;20114;-65
2021/03/01 08:20:31;;;;;;;18.58;8.30;;;;;;;4.59;78.25;103606.59;10296008;28;20133;-64
2021/03/01 08:25:43;;;;;;;17.90;8.40;;;;;;;4.75;78.15;103605.38;10287324;28;20052;-65
2021/03/01 08:30:39;;;;;;;18.27;8.40;;;;;;;4.72;77.49;103609.34;10292844;28;20054;-66
2021/03/01 08:35:46;;;;;;;15.27;7.53;;;;;;;4.88;78.04;103612.69;10297332;28;20139;-66
2021/03/01 08:40:54;;;;;;;17.92;9.00;;;;;;;5.04;77.29;103609.56;10286852;28;20482;-66
2021/03/01 08:45:51;;;;;;;17.20;10.27;;;;;;;5.21;76.21;103608.06;10287886;28;20549;-66
2021/03/01 08:50:51;;;;;;;19.27;9.85;;;;;;;5.30;76.04;103600.53;10294750;28;20417;-66
2021/03/01 08:55:47;;;;;;;20.80;9.07;;;;;;;5.01;75.85;103602.69;10297649;28;20075;-65
2021/03/01 09:00:51;;;;;;;18.45;9.85;;;;;;;5.27;75.51;103609.13;10304705;28;20117;-66
2021/03/01 09:05:49;;;;;;;22.60;9.82;;;;;;;5.23;75.25;103605.16;10290248;28;20076;-67
2021/03/01 09:10:45;;;;;;;19.27;9.13;;;;;;;5.07;74.84;103611.84;10289063;28;20141;-66
2021/03/01 09:15:42;;;;;;;21.30;9.65;;;;;;;5.11;74.68;103604.97;10291003;28;20052;-64
2021/03/01 09:20:40;;;;;;;17.33;8.75;;;;;;;5.22;74.04;103609.75;10301753;28;20076;-66
2021/03/01 09:25:37;;;;;;;17.27;9.82;;;;;;;5.32;74.65;103608.47;10294425;28;20124;-65
2021/03/01 09:30:35;;;;;;;16.25;7.32;;;;;;;5.53;73.78;103605.50;10297566;28;20070;-65
2021/03/01 09:35:34;;;;;;;17.25;8.85;;;;;;;5.55;73.39;103608.84;10287574;28;20139;-64
2021/03/01 09:40:31;;;;;;;18.13;8.98;;;;;;;5.88;73.62;103607.88;10293248;28;20556;-63
2021/03/01 09:45:30;;;;;;;17.15;9.35;;;;;;;5.83;73.54;103607.72;10279783;28;20052;-63
2021/03/01 09:50:27;;;;;;;19.02;9.13;;;;;;;6.07;72.66;103601.56;10288993;28;20106;-63
2021/03/01 09:55:24;;;;;;;21.33;10.45;;;;;;;6.43;72.54;103604.69;10285949;28;20060;-62
2021/03/01 10:00:27;;;;;;;19.05;9.70;;;;;;;6.71;70.54;103617.91;10279319;28;20569;-65
2021/03/01 10:05:25;;;;;;;18.85;10.80;;;;;;;6.77;70.16;103614.28;10280996;28;20451;-67
2021/03/01 10:10:22;;;;;;;25.33;11.10;;;;;;;6.91;69.29;103613.09;10284425;28;20047;-64
2021/03/01 10:15:20;;;;;;;24.35;11.73;;;;;;;6.86;69.31;103614.84;10285949;28;20048;-65
2021/03/01 10:20:16;;;;;;;21.30;11.80;;;;;;;6.62;69.24;103619.22;10282720;28;20051;-66
2021/03/01 10:25:13;;;;;;;24.85;13.25;;;;;;;6.74;69.54;103620.16;10277395;28;20041;-64
2021/03/01 10:30:18;;;;;;;26.30;11.02;;;;;;;6.81;69.56;103625.56;10274996;28;20041;-66
2021/03/01 10:35:19;;;;;;;23.67;11.40;;;;;;;6.75;69.31;103624.53;10282230;28;20045;-62
2021/03/01 10:40:26;;;;;;;25.35;12.18;;;;;;;6.64;68.90;103625.28;10279975;28;20051;-65
2021/03/01 10:45:22;;;;;;;22.33;11.68;;;;;;;6.68;68.43;103634.63;10287218;28;20048;-62
2021/03/01 10:50:21;;;;;;;29.95;14.63;;;;;;;6.62;69.11;103630.09;10290969;28;20052;-65
2021/03/01 10:55:18;;;;;;;26.70;12.98;;;;;;;6.77;68.73;103627.88;10309934;28;20045;-65
2021/03/01 11:00:14;;;;;;;22.48;12.27;;;;;;;7.13;67.43;103626.34;10302499;28;20190;-66
2021/03/01 11:05:11;;;;;;;25.02;12.82;;;;;;;7.59;66.93;103623.13;10288952;28;20106;-66
2021/03/01 11:10:07;;;;;;;26.25;12.75;;;;;;;7.60;65.95;103621.25;10291718;28;20727;-66
2021/03/01 11:15:04;;;;;;;27.15;13.35;;;;;;;7.58;65.54;103624.19;10293974;28;20091;-64
2021/03/01 11:20:00;;;;;;;23.17;12.35;;;;;;;7.83;65.23;103625.19;10284953;28;20457;-65
2021/03/01 11:24:56;;;;;;;25.63;13.25;;;;;;;7.84;63.94;103621.38;10283964;28;20497;-65
2021/03/01 11:29:52;;;;;;;22.92;11.73;;;;;;;8.19;63.22;103625.13;10278799;28;20048;-65
2021/03/01 11:34:48;;;;;;;19.77;10.45;;;;;;;8.10;63.37;103621.06;10283830;28;20056;-64
2021/03/01 11:39:44;;;;;;;22.52;11.68;;;;;;;8.37;61.78;103604.31;10296163;28;20051;-62
2021/03/01 11:44:40;;;;;;;20.70;11.73;;;;;;;8.72;61.31;103606.34;10294307;28;20071;-65
2021/03/01 11:49:36;;;;;;;21.42;11.00;;;;;;;9.00;59.69;103601.00;10289964;28;20052;-65
2021/03/01 11:54:32;;;;;;;22.80;11.45;;;;;;;9.48;60.58;103594.47;10290634;28;20107;-65
2021/03/01 11:59:28;;;;;;;23.27;10.80;;;;;;;9.81;58.29;103592.97;10289797;28;20525;-65
2021/03/01 12:04:24;;;;;;;20.55;10.98;;;;;;;10.00;57.66;103590.03;10281754;28;20063;-66
2021/03/01 12:09:20;;;;;;;17.83;9.95;;;;;;;10.13;57.59;103578.81;10291593;28;20048;-66
2021/03/01 12:14:16;;;;;;;20.08;10.40;;;;;;;10.35;56.96;103569.94;10295057;28;20080;-64
2021/03/01 12:19:12;;;;;;;19.88;10.45;;;;;;;10.27;58.32;103571.97;10282312;28;20040;-66
2021/03/01 12:24:10;;;;;;;19.67;10.30;;;;;;;10.59;57.02;103571.47;10295581;28;20087;-64
2021/03/01 12:29:06;;;;;;;20.05;10.68;;;;;;;11.12;55.17;103561.88;10288205;28;20510;-64
2021/03/01 12:34:03;;;;;;;19.63;10.20;;;;;;;11.68;54.33;103553.56;10286151;28;20475;-66
2021/03/01 12:38:59;;;;;;;19.40;10.15;;;;;;;11.90;51.69;103542.59;10302107;28;20515;-65
2021/03/01 12:43:55;;;;;;;17.67;9.52;;;;;;;12.90;49.62;103544.00;10283056;28;20041;-65
2021/03/01 12:48:51;;;;;;;18.42;10.45;;;;;;;13.73;49.05;103529.56;10289481;28;20063;-65
2021/03/01 12:53:47;;;;;;;20.00;10.55;;;;;;;14.49;46.36;103521.41;10284995;28;20135;-66
2021/03/01 12:58:43;;;;;;;15.77;9.45;;;;;;;14.72;45.02;103519.22;10290901;28;20114;-64
2021/03/01 13:03:39;;;;;;;18.15;9.77;;;;;;;15.41;43.18;103514.03;10297452;28;20079;-65
2021/03/01 13:08:36;;;;;;;19.30;9.52;;;;;;;15.96;42.12;103512.09;10291960;28;20055;-65
2021/03/01 13:13:32;;;;;;;14.50;9.20;;;;;;;16.01;41.25;103506.53;10289433;28;20106;-66
2021/03/01 13:18:28;;;;;;;14.60;8.02;;;;;;;16.42;40.47;103500.69;10286294;28;20414;-66
2021/03/01 13:23:26;;;;;;;15.63;8.13;;;;;;;17.00;39.08;103492.38;10300903;28;20649;-65
2021/03/01 13:28:22;;;;;;;15.52;8.27;;;;;;;17.55;38.19;103488.38;10277862;28;20064;-65
2021/03/01 13:33:20;;;;;;;16.52;8.45;;;;;;;17.49;37.52;103484.03;10290807;28;20374;-64
2021/03/01 13:38:16;;;;;;;13.88;8.32;;;;;;;17.84;38.99;103489.06;10288239;28;20094;-65
2021/03/01 13:43:33;;;;;;;12.52;6.47;;;;;;;18.17;37.14;103483.56;10296407;28;20143;-65
2021/03/01 13:48:29;;;;;;;11.68;6.72;;;;;;;18.51;37.04;103474.09;10284457;28;20053;-65
2021/03/01 13:53:25;;;;;;;12.63;7.53;;;;;;;18.56;35.94;103474.00;10294712;28;20096;-66
2021/03/01 13:58:21;;;;;;;12.35;7.85;;;;;;;18.50;36.37;103464.16;10282314;28;20061;-65
2021/03/01 14:03:17;;;;;;;14.43;7.30;;;;;;;18.10;34.54;103449.88;10288616;28;20045;-65
2021/03/01 14:08:13;;;;;;;12.55;7.97;;;;;;;18.21;36.90;103450.53;10286891;28;20048;-63
2021/03/01 14:13:09;;;;;;;13.10;7.30;;;;;;;17.86;35.21;103450.81;10286442;28;20098;-65
2021/03/01 14:18:14;;;;;;;12.65;7.57;;;;;;;17.72;36.97;103455.47;10287842;28;20051;-64
2021/03/01 14:23:10;;;;;;;12.95;7.38;;;;;;;16.96;37.77;103460.91;10298599;28;20109;-66
2021/03/01 14:28:06;;;;;;;13.52;7.97;;;;;;;17.03;37.82;103461.41;10296011;28;20061;-65
2021/03/01 14:33:02;;;;;;;13.07;7.18;;;;;;;16.70;38.24;103454.00;10294720;28;20504;-66
2021/03/01 14:37:58;;;;;;;14.35;8.13;;;;;;;16.42;39.57;103457.31;10298242;28;20051;-66
2021/03/01 14:42:55;;;;;;;12.30;7.13;;;;;;;16.57;39.81;103447.22;10313714;28;20177;-66
2021/03/01 14:47:51;;;;;;;11.18;6.97;;;;;;;16.83;39.08;103445.06;10283403;28;20049;-65
2021/03/01 14:52:47;;;;;;;14.38;8.63;;;;;;;16.77;38.98;103446.19;10301444;28;20049;-66
2021/03/01 14:57:44;;;;;;;12.35;6.80;;;;;;;16.73;40.05;103439.59;10296046;28;20044;-66
2021/03/01 15:02:40;;;;;;;13.82;7.25;;;;;;;16.56;39.63;103446.41;10302622;28;20097;-65
2021/03/01 15:07:37;;;;;;;12.07;6.68;;;;;;;16.27;39.52;103442.84;10300476;28;20099;-65
2021/03/01 15:12:33;;;;;;;13.70;7.72;;;;;;;16.88;39.36;103436.69;10300035;28;20421;-65
2021/03/01 15:17:29;;;;;;;12.77;6.85;;;;;;;16.92;39.26;103437.75;10302887;28;20048;-65
2021/03/01 15:22:25;;;;;;;15.43;7.72;;;;;;;16.10;40.96;103444.09;10298941;28;20681;-64
2021/03/01 15:27:21;;;;;;;13.35;7.22;;;;;;;15.32;42.45;103423.66;10287694;28;20089;-65
2021/03/01 15:32:18;;;;;;;16.30;8.40;;;;;;;14.82;43.74;103433.81;10299470;28;20056;-63
2021/03/01 15:37:14;;;;;;;13.73;7.95;;;;;;;14.20;45.74;103435.00;10295946;28;20044;-66
2021/03/01 15:42:10;;;;;;;15.55;8.35;;;;;;;13.98;46.84;103430.59;10287266;28;20045;-64
2021/03/01 15:47:06;;;;;;;15.50;7.10;;;;;;;13.89;47.11;103424.00;10291383;28;20045;-62
2021/03/01 15:52:02;;;;;;;14.43;7.50;;;;;;;13.78;47.64;103416.84;10287072;28;20052;-66
2021/03/01 15:56:58;;;;;;;15.13;7.25;;;;;;;13.59;47.90;103416.56;10290617;28;20130;-66
2021/03/01 16:01:54;;;;;;;15.73;7.70;;;;;;;13.11;48.35;103413.94;10288111;28;20067;-65
2021/03/01 16:06:51;;;;;;;15.32;7.15;;;;;;;12.76;49.90;103409.91;10282130;28;20049;-65
2021/03/01 16:11:47;;;;;;;15.27;7.90;;;;;;;12.35;51.01;103417.13;10285212;28;20055;-65
2021/03/01 16:16:43;;;;;;;17.23;7.50;;;;;;;12.27;51.45;103410.19;10285204;28;20060;-65
2021/03/01 16:21:40;;;;;;;14.45;7.97;;;;;;;12.33;51.30;103414.63;10287090;28;20560;-65
2021/03/01 16:26:36;;;;;;;14.38;7.53;;;;;;;12.06;52.08;103413.88;10287791;28;20044;-65
2021/03/01 16:31:32;;;;;;;16.05;6.57;;;;;;;11.79;52.93;103403.75;10285908;28;20075;-66
2021/03/01 16:36:30;;;;;;;17.05;7.22;;;;;;;11.93;52.90;103409.66;10282632;28;20072;-65
2021/03/01 16:41:27;;;;;;;14.27;7.28;;;;;;;11.81;53.19;103412.53;10289810;28;20414;-66
2021/03/01 16:46:26;;;;;;;15.45;7.15;;;;;;;11.71;53.68;103423.41;10292183;28;20048;-65
2021/03/01 16:51:24;;;;;;;16.20;7.93;;;;;;;11.40;54.10;103420.38;10286340;28;20127;-65
2021/03/01 16:56:21;;;;;;;16.30;8.40;;;;;;;11.24;54.51;103418.53;10290317;28;20134;-63
2021/03/01 17:01:18;;;;;;;14.55;7.05;;;;;;;11.01;55.44;103420.44;10294105;28;20136;-65
2021/03/01 17:06:21;;;;;;;16.10;8.35;;;;;;;10.94;55.79;103419.81;10292705;28;20154;-65
2021/03/01 17:11:20;;;;;;;14.32;6.85;;;;;;;10.81;55.72;103420.19;10282907;28;20127;-65
2021/03/01 17:16:25;;;;;;;18.08;8.00;;;;;;;10.67;56.18;103431.47;10287953;28;20052;-65
2021/03/01 17:21:22;;;;;;;15.93;7.45;;;;;;;10.50;56.42;103430.69;10291476;28;20040;-65
2021/03/01 17:26:20;;;;;;;18.30;7.65;;;;;;;10.39;57.18;103434.34;10310218;28;20056;-63
2021/03/01 17:31:17;;;;;;;16.25;7.50;;;;;;;10.19;57.23;103430.22;10282306;28;20140;-65
2021/03/01 17:36:18;;;;;;;14.82;8.75;;;;;;;9.93;58.78;103436.31;10281813;28;20056;-65
2021/03/01 17:41:15;;;;;;;19.63;8.30;;;;;;;9.82;58.65;103438.88;10278935;28;20157;-66
2021/03/01 17:46:15;;;;;;;16.02;9.05;;;;;;;9.57;59.60;103444.69;10287283;28;20098;-65
2021/03/01 17:51:17;;;;;;;16.42;8.98;;;;;;;9.65;59.65;103435.28;10283815;28;20049;-64
2021/03/01 17:56:22;;;;;;;17.08;8.95;;;;;;;9.53;60.01;103448.16;10279649;28;20568;-65
2021/03/01 18:01:24;;;;;;;16.40;9.88;;;;;;;9.36;59.90;103448.94;10277049;28;20083;-65
2021/03/01 18:06:21;;;;;;;18.92;10.98;;;;;;;9.32;60.57;103445.03;10282512;28;20044;-64
2021/03/01 18:11:18;;;;;;;18.30;10.85;;;;;;;9.25;60.01;103455.25;10288703;28;20052;-66
2021/03/01 18:16:14;;;;;;;16.30;9.70;;;;;;;9.00;61.63;103450.91;10289710;28;20068;-64
2021/03/01 18:21:11;;;;;;;17.70;10.45;;;;;;;8.98;61.22;103447.63;10278595;28;20053;-65
2021/03/01 18:26:07;;;;;;;17.77;9.98;;;;;;;8.83;61.74;103455.47;10270947;28;20161;-65
2021/03/01 18:31:03;;;;;;;17.77;10.88;;;;;;;8.72;61.56;103459.03;10278723;28;20068;-66
2021/03/01 18:36:00;;;;;;;20.67;10.63;;;;;;;8.64;61.74;103452.06;10286086;28;20098;-64
2021/03/01 18:40:59;;;;;;;17.23;9.68;;;;;;;8.53;62.20;103459.16;10279794;28;20258;-65
2021/03/01 18:46:02;;;;;;;20.90;10.63;;;;;;;8.35;62.41;103448.31;10285141;28;20110;-64
2021/03/01 18:50:58;;;;;;;17.15;10.20;;;;;;;8.22;63.00;103458.41;10286805;28;20107;-65
2021/03/01 18:55:54;;;;;;;17.42;10.52;;;;;;;8.14;62.90;103455.19;10292121;28;20111;-64
2021/03/01 19:00:50;;;;;;;20.77;11.60;;;;;;;7.97;63.44;103457.75;10289474;28;20072;-63
2021/03/01 19:05:48;;;;;;;18.63;11.20;;;;;;;7.88;63.30;103453.69;10295005;28;20528;-65
2021/03/01 19:10:44;;;;;;;21.02;11.65;;;;;;;7.79;63.56;103451.28;10293242;28;20056;-65
2021/03/01 19:15:41;;;;;;;20.75;12.07;;;;;;;7.68;63.88;103449.38;10289008;28;20049;-65
2021/03/01 19:20:38;;;;;;;23.20;12.15;;;;;;;7.57;63.97;103450.16;10283942;28;20529;-64
2021/03/01 19:25:35;;;;;;;21.45;11.88;;;;;;;7.49;64.14;103458.63;10300758;28;20110;-65
2021/03/01 19:30:31;;;;;;;20.02;11.50;;;;;;;7.38;63.87;103461.09;10288809;28;20098;-65
2021/03/01 19:35:27;;;;;;;21.30;11.88;;;;;;;7.30;64.23;103457.84;10284252;28;20152;-65
2021/03/01 19:40:23;;;;;;;18.65;11.18;;;;;;;7.17;64.43;103456.09;10298923;28;20137;-65
2021/03/01 19:45:19;;;;;;;20.55;11.55;;;;;;;7.11;64.77;103457.03;10285772;28;20072;-66
2021/03/01 19:50:16;;;;;;;22.50;13.07;;;;;;;7.01;64.59;103454.00;10289579;28;20071;-64
2021/03/01 19:55:12;;;;;;;25.48;13.40;;;;;;;6.95;65.29;103462.00;10296524;28;20040;-64
2021/03/01 20:00:09;;;;;;;23.42;14.38;;;;;;;6.81;65.66;103449.63;10285142;28;20105;-65
2021/03/01 20:05:07;;;;;;;27.35;14.00;;;;;;;6.71;65.68;103449.31;10290397;28;20429;-64
2021/03/01 20:10:05;;;;;;;26.63;14.63;;;;;;;6.63;65.88;103452.31;10293734;28;20105;-66
2021/03/01 20:15:01;;;;;;;25.95;13.82;;;;;;;6.59;65.78;103445.66;10295046;28;20145;-65
2021/03/01 20:19:57;;;;;;;25.08;14.32;;;;;;;6.52;65.36;103462.88;10289323;28;20098;-65
2021/03/01 20:24:53;;;;;;;26.67;15.30;;;;;;;6.43;66.15;103457.91;10296818;28;20071;-64
2021/03/01 20:29:50;;;;;;;24.50;14.45;;;;;;;6.38;65.95;103461.31;10293619;28;20051;-64
2021/03/01 20:34:46;;;;;;;24.35;14.45;;;;;;;6.29;66.83;103468.09;10299077;28;20130;-65
2021/03/01 20:39:42;;;;;;;28.65;15.35;;;;;;;6.24;66.90;103467.91;10290168;28;20052;-65
2021/03/01 20:44:38;;;;;;;27.13;16.48;;;;;;;6.19;67.44;103473.19;10285818;28;20454;-65
2021/03/01 20:49:34;;;;;;;30.42;15.70;;;;;;;6.08;67.21;103478.28;10289910;28;20056;-64
2021/03/01 20:54:30;;;;;;;27.52;15.02;;;;;;;6.03;67.20;103474.53;10291858;28;20098;-64
2021/03/01 20:59:26;;;;;;;26.15;14.65;;;;;;;5.99;67.24;103474.16;10280680;28;20056;-64
2021/03/01 21:04:23;;;;;;;28.17;15.70;;;;;;;6.03;67.38;103480.81;10288679;28;20106;-64
2021/03/01 21:09:19;;;;;;;28.08;15.88;;;;;;;6.01;67.69;103473.94;10282453;28;20083;-64
2021/03/01 21:14:15;;;;;;;25.95;14.60;;;;;;;5.93;67.43;103475.00;10286273;28;20634;-62
2021/03/01 21:19:12;;;;;;;32.08;16.10;;;;;;;5.97;67.00;103470.84;10283808;28;20049;-62
2021/03/01 21:24:13;;;;;;;27.38;14.70;;;;;;;5.94;66.59;103465.84;10289028;28;20139;-66
2021/03/01 21:29:15;;;;;;;27.23;16.67;;;;;;;5.88;67.40;103463.97;10296612;28;20071;-65
2021/03/01 21:34:15;;;;;;;29.52;17.25;;;;;;;5.84;67.33;103463.56;10284666;28;20414;-66
2021/03/01 21:39:12;;;;;;;30.60;15.93;;;;;;;5.77;67.40;103464.66;10280866;28;20609;-69
2021/03/01 21:44:08;;;;;;;27.85;15.82;;;;;;;5.72;67.64;103467.19;10302726;28;20159;-67
2021/03/01 21:49:06;;;;;;;29.33;16.20;;;;;;;5.54;67.64;103466.03;10294704;28;20048;-66
2021/03/01 21:54:03;;;;;;;29.33;15.93;;;;;;;5.46;67.94;103469.84;10285762;28;20036;-67
2021/03/01 21:59:00;;;;;;;30.92;16.88;;;;;;;5.37;68.09;103473.00;10291305;28;20090;-67
2021/03/01 22:03:56;;;;;;;26.85;15.85;;;;;;;5.22;68.46;103465.97;10296827;28;20037;-65
2021/03/01 22:08:52;;;;;;;28.92;17.35;;;;;;;5.20;68.66;103462.66;10303104;28;21408;-65
2021/03/01 22:13:49;;;;;;;33.80;17.15;;;;;;;5.06;68.49;103461.03;10290719;28;20762;-65
2021/03/01 22:18:46;;;;;;;30.27;16.65;;;;;;;5.07;68.23;103454.53;10300882;28;20098;-67
2021/03/01 22:23:42;;;;;;;31.33;16.27;;;;;;;4.93;68.19;103464.59;10285828;28;20045;-67
2021/03/01 22:28:43;;;;;;;34.35;17.77;;;;;;;4.83;69.22;103465.03;10282127;28;20056;-67
2021/03/01 22:34:04;;;;;;;30.35;17.85;;;;;;;4.80;69.04;103465.47;10296538;28;20131;-65
2021/03/01 22:39:05;;;;;;;32.50;17.33;;;;;;;4.69;68.69;103468.81;10284957;28;20044;-65
2021/03/01 22:44:04;;;;;;;28.98;16.55;;;;;;;4.66;69.67;103462.97;10300373;28;20048;-68